createdAt,value
2023-04-18T00:00:45.230Z,13.07
2023-04-18T00:03:52.129Z,13.53
2023-04-18T00:06:55.919Z,14.40
2023-04-18T00:09:59.467Z,13.10
2023-04-18T00:13:04.139Z,12.57
2023-04-18T00:16:09.043Z,10.60
2023-04-18T00:19:14.510Z,12.93
2023-04-18T00:22:22.364Z,12.33
2023-04-18T00:25:26.013Z,12.07
2023-04-18T00:28:29.589Z,12.03
2023-04-18T00:31:33.191Z,12.27
2023-04-18T00:34:38.325Z,12.13
2023-04-18T00:37:42.057Z,12.73
2023-04-18T00:40:45.561Z,12.37
2023-04-18T00:43:49.058Z,12.83
2023-04-18T00:46:52.588Z,12.70
2023-04-18T00:49:58.343Z,12.90
2023-04-18T00:53:02.086Z,13.77
2023-04-18T00:56:06.364Z,12.63
2023-04-18T00:59:12.121Z,12.87
2023-04-18T01:02:16.229Z,14.03
2023-04-18T01:05:21.794Z,13.27
2023-04-18T01:08:26.408Z,15.30
2023-04-18T01:11:34.288Z,15.03
2023-04-18T01:14:37.930Z,13.30
2023-04-18T01:17:41.796Z,14.87
2023-04-18T01:20:48.221Z,15.10
2023-04-18T01:23:53.085Z,16.33
2023-04-18T01:26:58.903Z,16.50
2023-04-18T01:30:03.155Z,15.33
2023-04-18T01:33:07.505Z,15.73
2023-04-18T01:36:11.119Z,15.93
2023-04-18T01:39:15.281Z,16.40
2023-04-18T01:42:20.425Z,15.80
2023-04-18T01:45:24.031Z,14.93
2023-04-18T01:48:27.641Z,16.47
2023-04-18T01:51:31.628Z,12.83
2023-04-18T01:54:35.365Z,16.17
2023-04-18T01:57:40.313Z,16.43
2023-04-18T02:00:44.001Z,16.33
2023-04-18T02:03:47.683Z,17.07
2023-04-18T02:06:51.412Z,17.07
2023-04-18T02:09:54.912Z,15.97
2023-04-18T02:12:59.913Z,13.30
2023-04-18T02:16:03.628Z,13.80
2023-04-18T02:19:07.223Z,13.43
2023-04-18T02:22:10.836Z,13.97
2023-04-18T02:25:14.590Z,12.30
2023-04-18T02:28:19.680Z,12.77
2023-04-18T02:31:23.307Z,12.30
2023-04-18T02:34:26.929Z,14.40
2023-04-18T02:37:30.423Z,13.00
2023-04-18T02:40:33.962Z,11.27
2023-04-18T02:43:38.881Z,12.90
2023-04-18T02:46:43.085Z,12.80
2023-04-18T02:49:49.505Z,12.17
2023-04-18T02:52:53.836Z,11.77
2023-04-18T02:56:00.641Z,11.93
2023-04-18T02:59:22.622Z,12.67
2023-04-18T03:02:44.940Z,12.20
2023-04-18T03:06:01.521Z,11.03
2023-04-18T03:09:09.522Z,11.40
2023-04-18T03:12:18.868Z,10.93
2023-04-18T03:15:24.911Z,9.93
2023-04-18T03:18:30.022Z,10.50
2023-04-18T03:21:36.483Z,9.80
2023-04-18T03:24:40.038Z,9.57
2023-04-18T03:27:44.826Z,9.77
2023-04-18T03:30:53.134Z,10.43
2023-04-18T03:33:57.003Z,9.70
2023-04-18T03:37:00.528Z,9.80
2023-04-18T03:40:08.406Z,10.30
2023-04-18T03:43:13.099Z,10.43
2023-04-18T03:46:18.472Z,10.63
2023-04-18T03:49:22.967Z,9.80
2023-04-18T03:52:29.187Z,9.30
2023-04-18T03:55:33.608Z,11.37
2023-04-18T03:58:38.933Z,10.43
2023-04-18T04:01:44.409Z,11.37
2023-04-18T04:04:48.836Z,12.23
2023-04-18T04:07:52.828Z,12.43
2023-04-18T04:10:56.423Z,12.30
2023-04-18T04:14:00.912Z,10.10
2023-04-18T04:17:12.318Z,12.47
2023-04-18T04:20:17.280Z,11.90
2023-04-18T04:23:21.106Z,13.33
2023-04-18T04:26:26.440Z,12.83
2023-04-18T04:29:41.521Z,14.07
2023-04-18T04:32:47.528Z,14.30
2023-04-18T04:35:51.180Z,15.03
2023-04-18T04:38:55.024Z,14.50
2023-04-18T04:42:07.980Z,13.33
2023-04-18T04:45:20.761Z,14.73
2023-04-18T04:48:25.968Z,15.73
2023-04-18T04:51:31.900Z,15.57
2023-04-18T04:54:36.730Z,15.83
2023-04-18T04:57:42.531Z,18.23
2023-04-18T05:01:08.270Z,17.97
2023-04-18T05:04:15.421Z,18.13
2023-04-18T05:07:19.246Z,17.40
2023-04-18T05:10:23.410Z,17.30
2023-04-18T05:13:27.212Z,17.00
2023-04-18T05:16:31.002Z,16.90
2023-04-18T05:19:37.031Z,17.67
2023-04-18T05:22:41.127Z,18.20
2023-04-18T05:25:44.837Z,19.10
2023-04-18T05:28:48.559Z,18.67
2023-04-18T05:31:52.230Z,19.30
2023-04-18T05:34:57.401Z,20.90
2023-04-18T05:38:01.128Z,18.63
2023-04-18T05:41:04.790Z,18.50
2023-04-18T05:44:08.517Z,19.10
2023-04-18T05:47:12.232Z,18.13
2023-04-18T05:50:17.319Z,21.03
2023-04-18T05:53:21.225Z,20.10
2023-04-18T05:56:24.977Z,19.00
2023-04-18T05:59:28.678Z,19.30
2023-04-18T06:02:32.578Z,19.50
2023-04-18T06:05:37.916Z,19.00
2023-04-18T06:08:41.950Z,19.20
2023-04-18T06:11:45.709Z,19.57
2023-04-18T06:14:50.916Z,20.00
2023-04-18T06:17:54.645Z,21.17
2023-04-18T06:20:59.843Z,21.07
2023-04-18T06:24:03.449Z,20.93
2023-04-18T06:27:09.387Z,19.40
2023-04-18T06:30:22.205Z,19.03
2023-04-18T06:33:25.964Z,18.80
2023-04-18T06:36:31.788Z,19.40
2023-04-18T06:39:35.414Z,15.87
2023-04-18T06:42:39.152Z,17.17
2023-04-18T06:45:43.358Z,15.23
2023-04-18T06:48:47.113Z,14.87
2023-04-18T06:51:52.291Z,15.73
2023-04-18T06:54:55.967Z,17.50
2023-04-18T06:58:00.709Z,18.40
2023-04-18T07:01:04.454Z,18.53
2023-04-18T07:04:08.506Z,17.17
2023-04-18T07:07:13.646Z,18.27
2023-04-18T07:10:17.413Z,18.30
2023-04-18T07:13:21.142Z,19.07
2023-04-18T07:16:24.917Z,18.00
2023-04-18T07:19:28.823Z,18.20
2023-04-18T07:22:33.899Z,18.23
2023-04-18T07:25:37.847Z,18.53
2023-04-18T07:28:42.649Z,17.23
2023-04-18T07:31:46.453Z,18.07
2023-04-18T07:34:51.691Z,16.87
2023-04-18T07:37:57.017Z,16.83
2023-04-18T07:41:01.754Z,15.40
2023-04-18T07:44:05.752Z,14.20
2023-04-18T07:47:11.391Z,13.00
2023-04-18T07:50:15.094Z,15.00
2023-04-18T07:53:20.380Z,14.00
2023-04-18T07:56:24.101Z,14.33
2023-04-18T07:59:27.928Z,14.37
2023-04-18T08:02:31.704Z,16.67
2023-04-18T08:05:35.530Z,15.70
2023-04-18T08:08:40.782Z,16.50
2023-04-18T08:11:44.649Z,16.90
2023-04-18T08:14:48.406Z,17.43
2023-04-18T08:17:52.549Z,16.90
2023-04-18T08:20:56.256Z,17.20
2023-04-18T08:24:01.488Z,14.70
2023-04-18T08:27:05.235Z,14.97
2023-04-18T08:30:10.236Z,13.83
2023-04-18T08:33:13.978Z,15.67
2023-04-18T08:36:17.747Z,15.70
2023-04-18T08:39:24.870Z,15.23
2023-04-18T08:42:28.999Z,12.87
2023-04-18T08:45:33.628Z,14.27
2023-04-18T08:48:37.329Z,13.47
2023-04-18T08:51:43.404Z,11.90
2023-04-18T08:54:49.257Z,12.73
2023-04-18T08:57:55.842Z,12.40
2023-04-18T09:00:59.470Z,12.67
2023-04-18T09:04:03.208Z,12.73
2023-04-18T09:07:08.676Z,12.37
2023-04-18T09:10:15.652Z,14.27
2023-04-18T09:13:39.897Z,13.13
2023-04-18T09:16:48.350Z,14.10
2023-04-18T09:19:54.681Z,21.53
2023-04-18T09:23:00.961Z,14.27
2023-04-18T09:26:06.252Z,14.93
2023-04-18T09:29:09.909Z,14.37
2023-04-18T09:32:24.068Z,13.97
2023-04-18T09:35:28.226Z,14.63
2023-04-18T09:38:42.110Z,14.37
2023-04-18T09:42:00.891Z,14.47
2023-04-18T09:45:07.293Z,14.43
2023-04-18T09:48:11.280Z,16.03
2023-04-18T09:51:17.501Z,16.30
2023-04-18T09:54:21.468Z,18.37
2023-04-18T09:57:29.067Z,18.00
2023-04-18T10:00:33.151Z,18.13
2023-04-18T10:03:45.964Z,23.83
2023-04-18T10:06:50.259Z,22.40
2023-04-18T10:09:54.670Z,18.33
2023-04-18T10:13:01.718Z,18.37
2023-04-18T10:16:07.090Z,18.90
2023-04-18T10:19:26.273Z,19.63
2023-04-18T10:22:30.049Z,19.57
2023-04-18T10:25:52.679Z,18.67
2023-04-18T10:28:59.306Z,17.80
2023-04-18T10:32:07.631Z,18.60
2023-04-18T10:35:12.420Z,19.30
2023-04-18T10:38:18.520Z,17.83
2023-04-18T10:41:24.828Z,18.70
2023-04-18T10:44:29.969Z,18.50
2023-04-18T10:47:33.964Z,18.90
2023-04-18T10:51:15.970Z,18.23
2023-04-18T10:54:23.682Z,17.37
2023-04-18T10:57:38.493Z,19.23
2023-04-18T11:00:43.775Z,21.13
2023-04-18T11:03:47.934Z,19.80
2023-04-18T11:06:53.416Z,19.30
2023-04-18T11:09:57.844Z,18.57
2023-04-18T11:13:04.875Z,20.20
2023-04-18T11:16:10.700Z,19.83
2023-04-18T11:19:22.077Z,19.07
2023-04-18T11:22:26.099Z,21.43
2023-04-18T11:25:32.151Z,21.30
2023-04-18T11:28:36.065Z,21.47
2023-04-18T11:31:41.822Z,19.60
2023-04-18T11:34:46.042Z,20.60
2023-04-18T11:37:51.508Z,21.23
2023-04-18T11:40:55.234Z,20.80
2023-04-18T11:43:58.957Z,23.00
2023-04-18T11:47:04.095Z,22.63
2023-04-18T11:50:10.115Z,22.47
2023-04-18T11:53:13.960Z,23.20
2023-04-18T11:56:17.682Z,23.83
2023-04-18T11:59:21.493Z,22.23
2023-04-18T12:02:28.738Z,22.13
2023-04-18T12:05:34.231Z,22.10
2023-04-18T12:08:38.341Z,22.93
2023-04-18T12:11:42.833Z,21.53
2023-04-18T12:14:47.693Z,19.80
2023-04-18T12:17:53.147Z,18.30
2023-04-18T12:20:58.781Z,16.60
2023-04-18T12:24:14.103Z,15.83
2023-04-18T12:27:18.090Z,15.67
2023-04-18T12:30:22.777Z,15.67
2023-04-18T12:33:27.961Z,16.57
2023-04-18T12:36:31.831Z,15.60
2023-04-18T12:39:35.535Z,15.07
2023-04-18T12:42:39.201Z,14.43
2023-04-18T12:45:42.768Z,15.23
2023-04-18T12:48:47.918Z,15.67
2023-04-18T12:51:51.508Z,14.83
2023-04-18T12:54:56.576Z,15.13
2023-04-18T12:58:00.286Z,12.73
2023-04-18T13:01:05.049Z,13.90
2023-04-18T13:04:12.856Z,14.10
2023-04-18T13:07:17.205Z,13.57
2023-04-18T13:10:24.907Z,12.97
2023-04-18T13:13:28.583Z,13.23
2023-04-18T13:16:32.602Z,13.33
2023-04-18T13:19:37.760Z,12.63
2023-04-18T13:22:42.236Z,13.83
2023-04-18T13:25:46.002Z,13.13
2023-04-18T13:28:50.363Z,14.87
2023-04-18T13:31:54.090Z,13.87
2023-04-18T13:34:59.323Z,14.53
2023-04-18T13:38:03.024Z,13.67
2023-04-18T13:41:13.019Z,13.53
2023-04-18T13:44:17.195Z,14.40
2023-04-18T13:47:21.092Z,13.77
2023-04-18T13:50:26.492Z,13.70
2023-04-18T13:53:31.106Z,14.20
2023-04-18T13:56:35.142Z,15.00
2023-04-18T13:59:40.596Z,14.80
2023-04-18T14:02:44.363Z,15.33
2023-04-18T14:05:49.564Z,15.00
2023-04-18T14:08:53.571Z,14.47
2023-04-18T14:11:58.331Z,14.77
2023-04-18T14:15:02.159Z,15.87
2023-04-18T14:18:06.024Z,16.37
2023-04-18T14:21:11.178Z,12.43
2023-04-18T14:24:14.855Z,11.93
2023-04-18T14:27:19.009Z,12.27
2023-04-18T14:30:22.959Z,14.17
2023-04-18T14:33:26.725Z,14.33
2023-04-18T14:36:32.896Z,14.43
2023-04-18T14:39:38.226Z,14.60
2023-04-18T14:42:41.889Z,14.23
2023-04-18T14:45:45.498Z,14.60
2023-04-18T14:48:49.362Z,15.40
2023-04-18T14:51:54.538Z,14.13
2023-04-18T14:54:58.501Z,15.07
2023-04-18T14:58:02.290Z,14.53
2023-04-18T15:01:06.551Z,16.43
2023-04-18T15:04:10.458Z,15.53
2023-04-18T15:07:16.588Z,16.90
2023-04-18T15:10:22.722Z,15.07
2023-04-18T15:13:26.699Z,12.57
2023-04-18T15:16:31.383Z,12.73
2023-04-18T15:19:35.167Z,13.70
2023-04-18T15:22:40.371Z,12.27
2023-04-18T15:25:45.469Z,12.97
2023-04-18T15:28:49.176Z,11.80
2023-04-18T15:31:53.074Z,13.30
2023-04-18T15:34:56.759Z,13.63
2023-04-18T15:38:02.241Z,13.27
2023-04-18T15:41:06.160Z,13.90
2023-04-18T15:44:10.033Z,14.37
2023-04-18T15:47:13.915Z,14.23
2023-04-18T15:50:17.880Z,13.13
2023-04-18T15:53:23.100Z,13.07
2023-04-18T15:56:27.606Z,15.00
2023-04-18T15:59:31.897Z,13.90
2023-04-18T16:02:35.610Z,14.50
2023-04-18T16:05:39.335Z,14.53
2023-04-18T16:08:44.357Z,13.80
2023-04-18T16:11:48.064Z,13.47
2023-04-18T16:14:51.776Z,13.30
2023-04-18T16:17:55.845Z,13.17
2023-04-18T16:20:59.770Z,13.43
2023-04-18T16:24:05.128Z,13.20
2023-04-18T16:27:08.965Z,13.87
2023-04-18T16:30:13.605Z,12.73
2023-04-18T16:33:20.962Z,14.50
2023-04-18T16:36:24.991Z,16.13
2023-04-18T16:39:31.436Z,14.30
2023-04-18T16:42:35.533Z,14.80
2023-04-18T16:45:39.175Z,15.17
2023-04-18T16:48:42.879Z,18.93
2023-04-18T16:51:46.439Z,13.57
2023-04-18T16:54:52.779Z,11.90
2023-04-18T16:57:56.611Z,13.40
2023-04-18T17:01:02.528Z,13.07
2023-04-18T17:04:06.837Z,14.27
2023-04-18T17:07:10.514Z,13.90
2023-04-18T17:10:15.687Z,15.87
2023-04-18T17:13:19.522Z,14.20
2023-04-18T17:16:23.333Z,12.93
2023-04-18T17:19:27.041Z,12.63
2023-04-18T17:22:30.665Z,15.47
2023-04-18T17:25:35.782Z,15.90
2023-04-18T17:28:39.425Z,15.50
2023-04-18T17:31:43.205Z,15.70
2023-04-18T17:34:46.940Z,15.30
2023-04-18T17:37:51.125Z,14.40
2023-04-18T17:41:04.832Z,13.80
2023-04-18T17:44:10.567Z,13.97
2023-04-18T17:47:14.093Z,13.60
2023-04-18T17:50:17.856Z,13.83
2023-04-18T17:53:21.564Z,14.53
2023-04-18T17:56:27.133Z,14.57
2023-04-18T17:59:30.973Z,15.57
2023-04-18T18:02:34.756Z,14.23
2023-04-18T18:05:38.552Z,15.90
2023-04-18T18:08:43.637Z,17.17
2023-04-18T18:11:48.760Z,15.93
2023-04-18T18:14:52.403Z,15.53
2023-04-18T18:17:56.342Z,16.67
2023-04-18T18:21:00.375Z,16.20
2023-04-18T18:24:04.128Z,14.80
2023-04-18T18:27:09.633Z,14.17
2023-04-18T18:30:13.625Z,14.80
2023-04-18T18:33:17.300Z,14.77
2023-04-18T18:36:21.089Z,14.07
2023-04-18T18:39:24.779Z,12.67
2023-04-18T18:42:29.817Z,15.00
2023-04-18T18:45:33.547Z,13.17
2023-04-18T18:48:39.372Z,16.90
2023-04-18T18:51:44.646Z,16.63
2023-04-18T18:54:48.302Z,14.27
2023-04-18T18:57:53.553Z,12.27
2023-04-18T19:00:57.428Z,12.00
2023-04-18T19:04:01.205Z,11.87
2023-04-18T19:07:06.118Z,12.47
2023-04-18T19:10:11.376Z,12.13
2023-04-18T19:13:16.429Z,12.17
2023-04-18T19:16:20.174Z,11.20
2023-04-18T19:19:23.878Z,11.80
2023-04-18T19:22:27.680Z,11.37
2023-04-18T19:25:31.358Z,11.47
2023-04-18T19:28:36.790Z,11.13
2023-04-18T19:31:40.446Z,10.97
2023-04-18T19:34:44.166Z,10.03
2023-04-18T19:37:47.855Z,9.20
2023-04-18T19:40:51.606Z,8.30
2023-04-18T19:43:56.827Z,8.90
2023-04-18T19:47:00.545Z,8.30
2023-04-18T19:50:05.945Z,8.83
2023-04-18T19:53:09.712Z,7.93
2023-04-18T19:56:15.068Z,7.40
2023-04-18T19:59:20.206Z,6.53
2023-04-18T20:02:24.343Z,6.40
2023-04-18T20:05:28.341Z,6.97
2023-04-18T20:08:32.064Z,7.10
2023-04-18T20:11:35.732Z,7.60
2023-04-18T20:14:40.857Z,7.13
2023-04-18T20:17:44.589Z,7.87
2023-04-18T20:20:48.899Z,6.90
2023-04-18T20:23:52.542Z,6.50
2023-04-18T20:26:57.423Z,6.30
2023-04-18T20:30:02.558Z,5.90
2023-04-18T20:33:06.309Z,5.73
2023-04-18T20:36:10.040Z,5.53
2023-04-18T20:39:14.425Z,5.50
2023-04-18T20:42:18.918Z,5.30
2023-04-18T20:45:24.376Z,5.93
2023-04-18T20:48:28.147Z,6.43
2023-04-18T20:51:32.111Z,5.83
2023-04-18T20:54:35.830Z,5.63
2023-04-18T20:57:39.508Z,5.17
2023-04-18T21:00:45.115Z,5.23
2023-04-18T21:03:48.972Z,5.80
2023-04-18T21:06:52.798Z,5.67
2023-04-18T21:09:56.566Z,4.80
2023-04-18T21:13:00.307Z,5.10
2023-04-18T21:16:08.099Z,4.93
2023-04-18T21:19:12.209Z,4.60
2023-04-18T21:22:16.340Z,5.30
2023-04-18T21:25:21.464Z,5.53
2023-04-18T21:28:25.214Z,5.73
2023-04-18T21:31:32.154Z,6.20
2023-04-18T21:34:36.021Z,12.87
2023-04-18T21:37:39.692Z,14.33
2023-04-18T21:40:43.489Z,11.83
2023-04-18T21:43:47.251Z,9.23
2023-04-18T21:46:52.600Z,7.90
2023-04-18T21:49:56.882Z,6.50
2023-04-18T21:53:00.614Z,6.37
2023-04-18T21:56:04.258Z,6.47
2023-04-18T21:59:07.926Z,6.07
2023-04-18T22:05:44.171Z,6.33
2023-04-18T22:08:48.374Z,6.53
2023-04-18T22:11:56.954Z,5.97
2023-04-18T22:15:00.853Z,6.40
2023-04-18T22:18:06.455Z,6.93
2023-04-18T22:21:10.819Z,6.40
2023-04-18T22:24:14.860Z,5.93
2023-04-18T22:27:18.681Z,6.10
2023-04-18T22:30:22.592Z,6.73
2023-04-18T22:33:27.800Z,6.87
2023-04-18T22:36:31.771Z,6.93
2023-04-18T22:39:35.385Z,7.20
2023-04-18T22:42:39.094Z,6.70
2023-04-18T22:45:42.849Z,6.90
2023-04-18T22:48:48.183Z,7.20
2023-04-18T22:51:54.601Z,6.37
2023-04-18T22:54:58.381Z,6.67
2023-04-18T22:58:02.070Z,6.00
2023-04-18T23:01:05.665Z,5.77
2023-04-18T23:04:11.263Z,4.80
2023-04-18T23:07:15.049Z,4.90
2023-04-18T23:10:18.764Z,5.00
2023-04-18T23:13:22.448Z,4.93
2023-04-18T23:16:26.118Z,4.03
2023-04-18T23:19:31.371Z,3.90
2023-04-18T23:22:35.158Z,3.53
2023-04-18T23:25:38.693Z,3.87
2023-04-18T23:28:42.480Z,3.67
2023-04-18T23:31:46.295Z,3.50
2023-04-18T23:34:51.416Z,3.20
2023-04-18T23:37:54.987Z,3.20
2023-04-18T23:40:58.657Z,3.73
2023-04-18T23:44:02.300Z,3.40
2023-04-18T23:47:06.200Z,3.53
2023-04-18T23:50:12.337Z,4.10
2023-04-18T23:53:16.855Z,3.50
2023-04-18T23:56:20.656Z,3.43
2023-04-18T23:59:24.296Z,3.80
